Airfield :
LOGIN :

Register | Disclaimer

   EN    FR    IT 

 










Legend :    VFR   Marginal VFR   IFR   Intensive IFR   Very Intensive IFR
Visi :
Ceiling :
>= 8 km
>= 3000ft
5 to 8 km
1000 to 3000 ft
1500m to 5 km
500 to 1000 ft
800 to 1500m
200 to 500 ft
< 800m
< 200 ft
Symbols :   Thunderstorms  Fog  Heavy snow  Heavy precipitations  Wind > 20 kt
SIGMETs :     Misc.  Thunderstorms  Icing  Turbulence  Mountain Waves  Volcanic Ashes






- Airport Elevation : 348 ft
- IATA code : TSR


LRTR - Timisoara

CURRENT METAR :
  • 070800Z 16009KT CAVOK 25/15 Q1008

EXPIRED METARs :
  • 070730Z 18009KT CAVOK 25/15 Q1008
  • 070700Z 18008KT CAVOK 23/16 Q1008
  • 070630Z 17005KT 140V200 CAVOK 22/17 Q1008
  • 070600Z 14003KT CAVOK 19/17 Q1008
  • 070530Z 14004KT CAVOK 18/17 Q1008

TAF TAF LRTR
Valid from the 07 at 06:00 until the 08 at 06:00 UTC


070500Z 0706/0806 VRB04KT CAVOK
BECMG 0708/0710 16014KT
TEMPO 0710/0716 16020G30KT 5000 TSRA BKN010 BKN030CB
PROB30 0711/0715 1500 +TSRAGR
BECMG 0802/0804 08004KT



MET'MAP, your aeronautical weather chart ! - Copyright ORBIFLY December 2007 - Disclaimer

ORBIFLY MET'MAP TEAM :

Programming & Development : Alexandra Zaïnal
Concept & original design : Baudouin d'Aumeries
Assistance for programming : Marc-Olivier Méhu
Technical & hardware support : Manuel Goepfert

Contact : metmap@orbifly.com




SOURCES & CREDITS :

   NOAA